PWSweather.com
Personal Weather Stations
Station Observations
KTXPLANO60
Highlands Of Russell Park, Plano, TX 75025

Highlands Of Russell ParkPlano, TX 75025

Lat: 33.10431671, Lon: -96.75176239

Elevation: 761

Station Type: Davis Wireless VP2 Plus

http://www.planoweather.com

Latest ConditionsUpdated 7:30:09 PM CST Monday, Nov 24, 2014
Currently Today's Max Today's Min Today's Average
Temperature 48.1°F8.9°C 62.5°F16.9°C 40.8°F4.9°C 50.3°F10.2°C
Dew Point 26.6°F-3.0°C 39.0°F3.9°C 24.8°F-4.0°C 33.2°F0.7°C
Winds 3.3 mph WNW5.3 kmh WNW 9.5 mph NW15.3 kmh NW - 4.1 mph 6.6 kmh
Wind Gusts 6.0 mph9.7 kmh 15.0 mph24.1 kmh - -
Humidity 43% 81% 26% 56%
Pressure 30.07 in1018.3 mb 30.07 in1018.3 mb 29.77 in1008.1 mb -
Hour Temp Dew Point Humidity Winds Wind Gusts Pressure Precip Precip Rate Daily Precip Total
07:30 PM 48.1°F8.9°C 26.6°F-3.0°C 43% 3.3 mph WNW5.3 kmh WNW 6.0 mph9.7 kmh 30.07 in1018.3 mb 0.00 in0.0 mm 0.00 in/hr0.0 mm/hr 0.00 in0.0 mm
07:20 PM 48.7°F9.3°C 26.6°F-3.0°C 42% 1.1 mph WNW1.8 kmh WNW 2.0 mph3.2 kmh 30.07 in1018.3 mb 0.00 in0.0 mm 0.00 in/hr0.0 mm/hr 0.00 in0.0 mm
07:10 PM 49.7°F9.8°C 27.5°F-2.5°C 42% 1.0 mph WNW1.6 kmh WNW 1.0 mph1.6 kmh 30.06 in1017.9 mb 0.00 in0.0 mm 0.00 in/hr0.0 mm/hr 0.00 in0.0 mm
07:00 PM 50.6°F10.3°C 27.1°F-2.7°C 40% Calm Calm -- 30.05 in1017.6 mb 0.00 in0.0 mm 0.00 in/hr0.0 mm/hr 0.00 in0.0 mm
06:50 PM 51.2°F10.7°C 27.1°F-2.7°C 39% 1.3 mph WNW2.1 kmh WNW 4.0 mph6.4 kmh 30.05 in1017.6 mb 0.00 in0.0 mm 0.00 in/hr0.0 mm/hr 0.00 in0.0 mm
06:40 PM 51.5°F10.8°C 27.3°F-2.6°C 39% 4.0 mph WNW6.4 kmh WNW 5.0 mph8.0 kmh 30.04 in1017.3 mb 0.00 in0.0 mm 0.00 in/hr0.0 mm/hr 0.00 in0.0 mm
06:30 PM 51.8°F11.0°C 27.0°F-2.8°C 38% 3.9 mph WNW6.3 kmh WNW 5.0 mph8.0 kmh 30.04 in1017.3 mb 0.00 in0.0 mm 0.00 in/hr0.0 mm/hr 0.00 in0.0 mm
06:20 PM 52.5°F11.4°C 26.9°F-2.8°C 37% 2.6 mph WNW4.2 kmh WNW 6.0 mph9.7 kmh 30.03 in1016.9 mb 0.00 in0.0 mm 0.00 in/hr0.0 mm/hr 0.00 in0.0 mm
06:10 PM 53.2°F11.8°C 26.9°F-2.8°C 36% 2.5 mph WNW4.0 kmh WNW 4.0 mph6.4 kmh 30.02 in1016.6 mb 0.00 in0.0 mm 0.00 in/hr0.0 mm/hr 0.00 in0.0 mm
06:00 PM 53.9°F12.2°C 26.8°F-2.9°C 35% 1.3 mph WNW2.1 kmh WNW 5.0 mph8.0 kmh 30.02 in1016.6 mb 0.00 in0.0 mm 0.00 in/hr0.0 mm/hr 0.00 in0.0 mm
05:50 PM 54.7°F12.6°C 26.1°F-3.3°C 33% 1.3 mph WNW2.1 kmh WNW 4.0 mph6.4 kmh 30.02 in1016.6 mb 0.00 in0.0 mm 0.00 in/hr0.0 mm/hr 0.00 in0.0 mm
05:40 PM 55.4°F13.0°C 26.0°F-3.3°C 32% 0.5 mph WNW0.8 kmh WNW 2.0 mph3.2 kmh 30.02 in1016.6 mb 0.00 in0.0 mm 0.00 in/hr0.0 mm/hr 0.00 in0.0 mm
05:30 PM 56.2°F13.4°C 25.9°F-3.4°C 31% 1.1 mph WNW1.8 kmh WNW 5.0 mph8.0 kmh 30.01 in1016.3 mb 0.00 in0.0 mm 0.00 in/hr0.0 mm/hr 0.00 in0.0 mm
05:20 PM 56.8°F13.8°C 25.7°F-3.5°C 30% 4.1 mph WNW6.6 kmh WNW 8.0 mph12.9 kmh 30.01 in1016.3 mb 0.00 in0.0 mm 0.00 in/hr0.0 mm/hr 0.00 in0.0 mm
05:10 PM 57.3°F14.1°C 25.3°F-3.7°C 29% 5.3 mph WNW8.5 kmh WNW 8.0 mph12.9 kmh 30.01 in1016.3 mb 0.00 in0.0 mm 0.00 in/hr0.0 mm/hr 0.00 in0.0 mm
05:00 PM 57.8°F14.3°C 24.9°F-3.9°C 28% 3.8 mph WNW6.1 kmh WNW 11.0 mph17.7 kmh 30.01 in1016.3 mb 0.00 in0.0 mm 0.00 in/hr0.0 mm/hr 0.00 in0.0 mm
04:50 PM 58.2°F14.6°C 25.3°F-3.7°C 28% 7.1 mph WNW11.4 kmh WNW 13.0 mph20.9 kmh 30.01 in1016.3 mb 0.00 in0.0 mm 0.00 in/hr0.0 mm/hr 0.00 in0.0 mm
04:40 PM 58.7°F14.8°C 25.6°F-3.6°C 28% 5.9 mph WNW9.5 kmh WNW 8.0 mph12.9 kmh 30.00 in1015.9 mb 0.00 in0.0 mm 0.00 in/hr0.0 mm/hr 0.00 in0.0 mm
04:30 PM 59.3°F15.2°C 25.3°F-3.7°C 27% 1.9 mph WNW3.1 kmh WNW 7.0 mph11.3 kmh 30.00 in1015.9 mb 0.00 in0.0 mm 0.00 in/hr0.0 mm/hr 0.00 in0.0 mm
04:20 PM 59.7°F15.4°C 25.6°F-3.6°C 27% 2.9 mph WNW4.7 kmh WNW 6.0 mph9.7 kmh 30.00 in1015.9 mb 0.00 in0.0 mm 0.00 in/hr0.0 mm/hr 0.00 in0.0 mm
04:10 PM 59.8°F15.4°C 24.8°F-4.0°C 26% 6.0 mph WNW9.7 kmh WNW 9.0 mph14.5 kmh 30.00 in1015.9 mb 0.00 in0.0 mm 0.00 in/hr0.0 mm/hr 0.00 in0.0 mm
04:00 PM 60.5°F15.8°C 26.3°F-3.2°C 27% 5.9 mph WNW9.5 kmh WNW 9.0 mph14.5 kmh 30.00 in1015.9 mb 0.00 in0.0 mm 0.00 in/hr0.0 mm/hr 0.00 in0.0 mm
03:50 PM 61.3°F16.3°C 27.0°F-2.8°C 27% 3.3 mph WNW5.3 kmh WNW 5.0 mph8.0 kmh 30.00 in1015.9 mb 0.00 in0.0 mm 0.00 in/hr0.0 mm/hr 0.00 in0.0 mm
03:40 PM 61.7°F16.5°C 27.3°F-2.6°C 27% 5.0 mph W8.0 kmh W 15.0 mph24.1 kmh 30.00 in1015.9 mb 0.00 in0.0 mm 0.00 in/hr0.0 mm/hr 0.00 in0.0 mm
03:30 PM 61.5°F16.4°C 29.8°F-1.2°C 30% 1.0 mph W1.6 kmh W 9.0 mph14.5 kmh 30.00 in1015.9 mb 0.00 in0.0 mm 0.00 in/hr0.0 mm/hr 0.00 in0.0 mm
03:20 PM 61.5°F16.4°C 29.8°F-1.2°C 30% 1.9 mph W3.1 kmh W 6.0 mph9.7 kmh 30.00 in1015.9 mb 0.00 in0.0 mm 0.00 in/hr0.0 mm/hr 0.00 in0.0 mm
03:10 PM 62.5°F16.9°C 29.8°F-1.2°C 29% 4.3 mph W6.9 kmh W 9.0 mph14.5 kmh 29.99 in1015.6 mb 0.00 in0.0 mm 0.00 in/hr0.0 mm/hr 0.00 in0.0 mm
03:00 PM 61.1°F16.2°C 29.4°F-1.4°C 30% 4.1 mph W6.6 kmh W 5.0 mph8.0 kmh 30.00 in1015.9 mb 0.00 in0.0 mm 0.00 in/hr0.0 mm/hr 0.00 in0.0 mm
02:50 PM 61.6°F16.4°C 29.8°F-1.2°C 30% 5.4 mph W8.7 kmh W 7.0 mph11.3 kmh 30.00 in1015.9 mb 0.00 in0.0 mm 0.00 in/hr0.0 mm/hr 0.00 in0.0 mm
02:40 PM 61.0°F16.1°C 30.1°F-1.1°C 31% 6.5 mph W10.5 kmh W 10.0 mph16.1 kmh 30.00 in1015.9 mb 0.00 in0.0 mm 0.00 in/hr0.0 mm/hr 0.00 in0.0 mm
02:30 PM 61.6°F16.4°C 32.2°F0.1°C 33% 3.3 mph WSW5.3 kmh WSW 8.0 mph12.9 kmh 30.00 in1015.9 mb 0.00 in0.0 mm 0.00 in/hr0.0 mm/hr 0.00 in0.0 mm
02:20 PM 60.5°F15.8°C 31.9°F-0.1°C 34% 1.7 mph WSW2.7 kmh WSW 6.0 mph9.7 kmh 30.00 in1015.9 mb 0.00 in0.0 mm 0.00 in/hr0.0 mm/hr 0.00 in0.0 mm
02:10 PM 60.5°F15.8°C 30.4°F-0.9°C 32% 3.9 mph WSW6.3 kmh WSW 7.0 mph11.3 kmh 30.00 in1015.9 mb 0.00 in0.0 mm 0.00 in/hr0.0 mm/hr 0.00 in0.0 mm
02:00 PM 59.6°F15.3°C 30.4°F-0.9°C 33% 4.8 mph WSW7.7 kmh WSW 7.0 mph11.3 kmh 30.00 in1015.9 mb 0.00 in0.0 mm 0.00 in/hr0.0 mm/hr 0.00 in0.0 mm
01:50 PM 59.7°F15.4°C 31.9°F-0.1°C 35% 0.1 mph WSW0.2 kmh WSW 3.0 mph4.8 kmh 30.01 in1016.3 mb 0.00 in0.0 mm 0.00 in/hr0.0 mm/hr 0.00 in0.0 mm
01:40 PM 59.4°F15.2°C 30.3°F-0.9°C 33% 5.5 mph WSW8.9 kmh WSW 7.0 mph11.3 kmh 30.00 in1015.9 mb 0.00 in0.0 mm 0.00 in/hr0.0 mm/hr 0.00 in0.0 mm
01:30 PM 58.9°F14.9°C 30.5°F-0.8°C 34% 2.7 mph WSW4.3 kmh WSW 6.0 mph9.7 kmh 30.00 in1015.9 mb 0.00 in0.0 mm 0.00 in/hr0.0 mm/hr 0.00 in0.0 mm
01:20 PM 58.2°F14.6°C 31.3°F-0.4°C 36% 4.1 mph WSW6.6 kmh WSW 6.0 mph9.7 kmh 30.01 in1016.3 mb 0.00 in0.0 mm 0.00 in/hr0.0 mm/hr 0.00 in0.0 mm
01:10 PM 57.8°F14.3°C 30.3°F-0.9°C 35% 1.8 mph W2.9 kmh W 7.0 mph11.3 kmh 30.01 in1016.3 mb 0.00 in0.0 mm 0.00 in/hr0.0 mm/hr 0.00 in0.0 mm
01:00 PM 58.2°F14.6°C 30.0°F-1.1°C 34% 5.9 mph W9.5 kmh W 9.0 mph14.5 kmh 30.01 in1016.3 mb 0.00 in0.0 mm 0.00 in/hr0.0 mm/hr 0.00 in0.0 mm
12:50 PM 57.3°F14.1°C 29.1°F-1.6°C 34% 4.8 mph W7.7 kmh W 7.0 mph11.3 kmh 30.00 in1015.9 mb 0.00 in0.0 mm 0.00 in/hr0.0 mm/hr 0.00 in0.0 mm
12:40 PM 57.2°F14.0°C 29.1°F-1.6°C 34% 4.4 mph W7.1 kmh W 9.0 mph14.5 kmh 30.00 in1015.9 mb 0.00 in0.0 mm 0.00 in/hr0.0 mm/hr 0.00 in0.0 mm
12:30 PM 58.2°F14.6°C 29.2°F-1.6°C 33% 3.9 mph WNW6.3 kmh WNW 5.0 mph8.0 kmh 30.01 in1016.3 mb 0.00 in0.0 mm 0.00 in/hr0.0 mm/hr 0.00 in0.0 mm
12:20 PM 57.7°F14.3°C 32.3°F0.2°C 38% 4.1 mph WNW6.6 kmh WNW 9.0 mph14.5 kmh 30.01 in1016.3 mb 0.00 in0.0 mm 0.00 in/hr0.0 mm/hr 0.00 in0.0 mm
12:10 PM 56.9°F13.8°C 30.2°F-1.0°C 36% 0.7 mph WNW1.1 kmh WNW 5.0 mph8.0 kmh 30.01 in1016.3 mb 0.00 in0.0 mm 0.00 in/hr0.0 mm/hr 0.00 in0.0 mm
12:00 PM 56.6°F13.7°C 31.9°F-0.1°C 39% 2.3 mph WNW3.7 kmh WNW 4.0 mph6.4 kmh 30.01 in1016.3 mb 0.00 in0.0 mm 0.00 in/hr0.0 mm/hr 0.00 in0.0 mm
11:50 AM 56.0°F13.3°C 32.6°F0.3°C 41% 4.0 mph WNW6.4 kmh WNW 8.0 mph12.9 kmh 30.01 in1016.3 mb 0.00 in0.0 mm 0.00 in/hr0.0 mm/hr 0.00 in0.0 mm
11:40 AM 55.9°F13.3°C 31.3°F-0.4°C 39% 5.8 mph W9.3 kmh W 8.0 mph12.9 kmh 30.01 in1016.3 mb 0.00 in0.0 mm 0.00 in/hr0.0 mm/hr 0.00 in0.0 mm
11:30 AM 56.4°F13.6°C 31.1°F-0.5°C 38% 3.1 mph W5.0 kmh W 7.0 mph11.3 kmh 30.02 in1016.6 mb 0.00 in0.0 mm 0.00 in/hr0.0 mm/hr 0.00 in0.0 mm
11:20 AM 55.9°F13.3°C 33.1°F0.6°C 42% 2.2 mph W3.5 kmh W 5.0 mph8.0 kmh 30.02 in1016.6 mb 0.00 in0.0 mm 0.00 in/hr0.0 mm/hr 0.00 in0.0 mm
11:10 AM 55.9°F13.3°C 34.3°F1.3°C 44% 5.2 mph W8.4 kmh W 8.0 mph12.9 kmh 30.03 in1016.9 mb 0.00 in0.0 mm 0.00 in/hr0.0 mm/hr 0.00 in0.0 mm
11:00 AM 55.7°F13.2°C 32.9°F0.5°C 42% 3.4 mph W5.5 kmh W 4.0 mph6.4 kmh 30.03 in1016.9 mb 0.00 in0.0 mm 0.00 in/hr0.0 mm/hr 0.00 in0.0 mm
10:50 AM 55.3°F12.9°C 34.3°F1.3°C 45% 2.1 mph WNW3.4 kmh WNW 8.0 mph12.9 kmh 30.02 in1016.6 mb 0.00 in0.0 mm 0.00 in/hr0.0 mm/hr 0.00 in0.0 mm
10:40 AM 53.7°F12.1°C 33.4°F0.8°C 46% 2.6 mph WNW4.2 kmh WNW 7.0 mph11.3 kmh 30.03 in1016.9 mb 0.00 in0.0 mm 0.00 in/hr0.0 mm/hr 0.00 in0.0 mm
10:30 AM 53.9°F12.2°C 34.6°F1.4°C 48% 5.5 mph WNW8.9 kmh WNW 8.0 mph12.9 kmh 30.03 in1016.9 mb 0.00 in0.0 mm 0.00 in/hr0.0 mm/hr 0.00 in0.0 mm
10:20 AM 52.6°F11.4°C 34.5°F1.4°C 50% 4.1 mph WNW6.6 kmh WNW 9.0 mph14.5 kmh 30.02 in1016.6 mb 0.00 in0.0 mm 0.00 in/hr0.0 mm/hr 0.00 in0.0 mm
10:10 AM 51.8°F11.0°C 34.2°F1.2°C 51% 6.1 mph W9.8 kmh W 8.0 mph12.9 kmh 30.02 in1016.6 mb 0.00 in0.0 mm 0.00 in/hr0.0 mm/hr 0.00 in0.0 mm
10:00 AM 51.1°F10.6°C 35.5°F1.9°C 55% 5.2 mph W8.4 kmh W 8.0 mph12.9 kmh 30.02 in1016.6 mb 0.00 in0.0 mm 0.00 in/hr0.0 mm/hr 0.00 in0.0 mm
09:50 AM 50.4°F10.2°C 35.7°F2.1°C 57% 2.6 mph W4.2 kmh W 5.0 mph8.0 kmh 30.02 in1016.6 mb 0.00 in0.0 mm 0.00 in/hr0.0 mm/hr 0.00 in0.0 mm
09:40 AM 49.5°F9.7°C 35.7°F2.1°C 59% 5.2 mph W8.4 kmh W 8.0 mph12.9 kmh 30.02 in1016.6 mb 0.00 in0.0 mm 0.00 in/hr0.0 mm/hr 0.00 in0.0 mm
09:30 AM 47.3°F8.5°C 35.4°F1.9°C 63% 5.5 mph W8.9 kmh W 8.0 mph12.9 kmh 30.01 in1016.3 mb 0.00 in0.0 mm 0.00 in/hr0.0 mm/hr 0.00 in0.0 mm
09:20 AM 46.2°F7.9°C 34.7°F1.5°C 64% 3.4 mph W5.5 kmh W 5.0 mph8.0 kmh 30.00 in1015.9 mb 0.00 in0.0 mm 0.00 in/hr0.0 mm/hr 0.00 in0.0 mm
09:10 AM 46.2°F7.9°C 35.0°F1.7°C 65% 3.6 mph WNW5.8 kmh WNW 11.0 mph17.7 kmh 30.00 in1015.9 mb 0.00 in0.0 mm 0.00 in/hr0.0 mm/hr 0.00 in0.0 mm
09:00 AM 46.2°F7.9°C 34.6°F1.4°C 64% 3.2 mph WNW5.1 kmh WNW 6.0 mph9.7 kmh 29.98 in1015.2 mb 0.00 in0.0 mm 0.00 in/hr0.0 mm/hr 0.00 in0.0 mm
08:50 AM 45.6°F7.6°C 35.3°F1.8°C 67% 6.4 mph WNW10.3 kmh WNW 11.0 mph17.7 kmh 29.98 in1015.2 mb 0.00 in0.0 mm 0.00 in/hr0.0 mm/hr 0.00 in0.0 mm
08:40 AM 44.1°F6.7°C 35.3°F1.8°C 71% 6.7 mph WNW10.8 kmh WNW 8.0 mph12.9 kmh 29.97 in1014.9 mb 0.00 in0.0 mm 0.00 in/hr0.0 mm/hr 0.00 in0.0 mm
08:30 AM 43.3°F6.3°C 35.5°F1.9°C 74% 5.0 mph WNW8.0 kmh WNW 9.0 mph14.5 kmh 29.96 in1014.6 mb 0.00 in0.0 mm 0.00 in/hr0.0 mm/hr 0.00 in0.0 mm
08:20 AM 42.3°F5.7°C 35.3°F1.8°C 76% 5.1 mph WNW8.2 kmh WNW 8.0 mph12.9 kmh 29.96 in1014.6 mb 0.00 in0.0 mm 0.00 in/hr0.0 mm/hr 0.00 in0.0 mm
08:10 AM 41.7°F5.4°C 35.4°F1.9°C 78% 6.6 mph WNW10.6 kmh WNW 12.0 mph19.3 kmh 29.94 in1013.9 mb 0.00 in0.0 mm 0.00 in/hr0.0 mm/hr 0.00 in0.0 mm
08:00 AM 41.5°F5.3°C 35.5°F1.9°C 79% 7.2 mph NW11.6 kmh NW 14.0 mph22.5 kmh 29.93 in1013.5 mb 0.00 in0.0 mm 0.00 in/hr0.0 mm/hr 0.00 in0.0 mm
07:50 AM 41.2°F5.1°C 35.5°F1.9°C 80% 8.5 mph NW13.7 kmh NW 13.0 mph20.9 kmh 29.93 in1013.5 mb 0.00 in0.0 mm 0.00 in/hr0.0 mm/hr 0.00 in0.0 mm
07:40 AM 40.8°F4.9°C 35.1°F1.7°C 80% 6.4 mph W10.3 kmh W 9.0 mph14.5 kmh 29.93 in1013.5 mb 0.00 in0.0 mm 0.00 in/hr0.0 mm/hr 0.00 in0.0 mm
07:30 AM 40.9°F4.9°C 35.2°F1.8°C 80% 3.6 mph W5.8 kmh W 6.0 mph9.7 kmh 29.93 in1013.5 mb 0.00 in0.0 mm 0.00 in/hr0.0 mm/hr 0.00 in0.0 mm
07:20 AM 41.0°F5.0°C 35.3°F1.8°C 80% 2.9 mph WSW4.7 kmh WSW 5.0 mph8.0 kmh 29.93 in1013.5 mb 0.00 in0.0 mm 0.00 in/hr0.0 mm/hr 0.00 in0.0 mm
07:10 AM 41.3°F5.2°C 35.3°F1.8°C 79% 3.7 mph W6.0 kmh W 6.0 mph9.7 kmh 29.93 in1013.5 mb 0.00 in0.0 mm 0.00 in/hr0.0 mm/hr 0.00 in0.0 mm
07:00 AM 41.4°F5.2°C 35.7°F2.1°C 80% 6.4 mph WNW10.3 kmh WNW 9.0 mph14.5 kmh 29.93 in1013.5 mb 0.00 in0.0 mm 0.00 in/hr0.0 mm/hr 0.00 in0.0 mm
06:50 AM 41.5°F5.3°C 35.8°F2.1°C 80% 4.6 mph W7.4 kmh W 8.0 mph12.9 kmh 29.93 in1013.5 mb 0.00 in0.0 mm 0.00 in/hr0.0 mm/hr 0.00 in0.0 mm
06:40 AM 41.5°F5.3°C 35.8°F2.1°C 80% 6.4 mph W10.3 kmh W 9.0 mph14.5 kmh 29.92 in1013.2 mb 0.00 in0.0 mm 0.00 in/hr0.0 mm/hr 0.00 in0.0 mm
06:30 AM 41.6°F5.3°C 35.9°F2.2°C 80% 4.2 mph W6.8 kmh W 8.0 mph12.9 kmh 29.91 in1012.9 mb 0.00 in0.0 mm 0.00 in/hr0.0 mm/hr 0.00 in0.0 mm
06:20 AM 42.0°F5.6°C 36.3°F2.4°C 80% 2.8 mph W4.5 kmh W 4.0 mph6.4 kmh 29.92 in1013.2 mb 0.00 in0.0 mm 0.00 in/hr0.0 mm/hr 0.00 in0.0 mm
06:10 AM 42.2°F5.7°C 36.5°F2.5°C 80% 3.7 mph W6.0 kmh W 6.0 mph9.7 kmh 29.91 in1012.9 mb 0.00 in0.0 mm 0.00 in/hr0.0 mm/hr 0.00 in0.0 mm
06:00 AM 42.3°F5.7°C 36.5°F2.5°C 80% 3.4 mph W5.5 kmh W 6.0 mph9.7 kmh 29.91 in1012.9 mb 0.00 in0.0 mm 0.00 in/hr0.0 mm/hr 0.00 in0.0 mm
05:50 AM 42.3°F5.7°C 36.6°F2.6°C 80% 4.4 mph W7.1 kmh W 7.0 mph11.3 kmh 29.91 in1012.9 mb 0.00 in0.0 mm 0.00 in/hr0.0 mm/hr 0.00 in0.0 mm
05:40 AM 42.2°F5.7°C 36.5°F2.5°C 80% 3.3 mph WSW5.3 kmh WSW 5.0 mph8.0 kmh 29.89 in1012.2 mb 0.00 in0.0 mm 0.00 in/hr0.0 mm/hr 0.00 in0.0 mm
05:30 AM 42.3°F5.7°C 36.9°F2.7°C 81% 3.6 mph WSW5.8 kmh WSW 5.0 mph8.0 kmh 29.89 in1012.2 mb 0.00 in0.0 mm 0.00 in/hr0.0 mm/hr 0.00 in0.0 mm
05:20 AM 42.4°F5.8°C 36.7°F2.6°C 80% 2.9 mph WSW4.7 kmh WSW 4.0 mph6.4 kmh 29.89 in1012.2 mb 0.00 in0.0 mm 0.00 in/hr0.0 mm/hr 0.00 in0.0 mm
05:10 AM 42.6°F5.9°C 36.9°F2.7°C 80% 3.7 mph WSW6.0 kmh WSW 6.0 mph9.7 kmh 29.88 in1011.9 mb 0.00 in0.0 mm 0.00 in/hr0.0 mm/hr 0.00 in0.0 mm
05:00 AM 42.9°F6.1°C 37.2°F2.9°C 80% 2.9 mph WSW4.7 kmh WSW 6.0 mph9.7 kmh 29.88 in1011.9 mb 0.00 in0.0 mm 0.00 in/hr0.0 mm/hr 0.00 in0.0 mm
04:50 AM 43.1°F6.2°C 37.3°F2.9°C 80% 3.7 mph WSW6.0 kmh WSW 7.0 mph11.3 kmh 29.88 in1011.9 mb 0.00 in0.0 mm 0.00 in/hr0.0 mm/hr 0.00 in0.0 mm
04:40 AM 43.2°F6.2°C 37.4°F3.0°C 80% 4.3 mph WSW6.9 kmh WSW 8.0 mph12.9 kmh 29.88 in1011.9 mb 0.00 in0.0 mm 0.00 in/hr0.0 mm/hr 0.00 in0.0 mm
04:30 AM 43.2°F6.2°C 37.5°F3.1°C 80% 3.4 mph WSW5.5 kmh WSW 6.0 mph9.7 kmh 29.87 in1011.5 mb 0.00 in0.0 mm 0.00 in/hr0.0 mm/hr 0.00 in0.0 mm
04:20 AM 43.5°F6.4°C 37.4°F3.0°C 79% 3.1 mph WSW5.0 kmh WSW 5.0 mph8.0 kmh 29.87 in1011.5 mb 0.00 in0.0 mm 0.00 in/hr0.0 mm/hr 0.00 in0.0 mm
04:10 AM 43.8°F6.6°C 37.7°F3.2°C 79% 4.3 mph WSW6.9 kmh WSW 6.0 mph9.7 kmh 29.86 in1011.2 mb 0.00 in0.0 mm 0.00 in/hr0.0 mm/hr 0.00 in0.0 mm
04:00 AM 43.9°F6.6°C 37.8°F3.2°C 79% 3.0 mph WSW4.8 kmh WSW 6.0 mph9.7 kmh 29.85 in1010.8 mb 0.00 in0.0 mm 0.00 in/hr0.0 mm/hr 0.00 in0.0 mm
03:50 AM 43.9°F6.6°C 37.8°F3.2°C 79% 3.9 mph WSW6.3 kmh WSW 6.0 mph9.7 kmh 29.86 in1011.2 mb 0.00 in0.0 mm 0.00 in/hr0.0 mm/hr 0.00 in0.0 mm
03:40 AM 43.8°F6.6°C 38.0°F3.3°C 80% 3.2 mph WSW5.1 kmh WSW 6.0 mph9.7 kmh 29.86 in1011.2 mb 0.00 in0.0 mm 0.00 in/hr0.0 mm/hr 0.00 in0.0 mm
03:30 AM 43.8°F6.6°C 37.7°F3.2°C 79% 3.3 mph WSW5.3 kmh WSW 5.0 mph8.0 kmh 29.85 in1010.8 mb 0.00 in0.0 mm 0.00 in/hr0.0 mm/hr 0.00 in0.0 mm
03:20 AM 43.9°F6.6°C 37.9°F3.3°C 79% 3.5 mph WSW5.6 kmh WSW 5.0 mph8.0 kmh 29.85 in1010.8 mb 0.00 in0.0 mm 0.00 in/hr0.0 mm/hr 0.00 in0.0 mm
03:10 AM 44.1°F6.7°C 38.0°F3.3°C 79% 2.4 mph WSW3.9 kmh WSW 4.0 mph6.4 kmh 29.85 in1010.8 mb 0.00 in0.0 mm 0.00 in/hr0.0 mm/hr 0.00 in0.0 mm
03:00 AM 44.1°F6.7°C 38.0°F3.3°C 79% 3.0 mph WSW4.8 kmh WSW 5.0 mph8.0 kmh 29.85 in1010.8 mb 0.00 in0.0 mm 0.00 in/hr0.0 mm/hr 0.00 in0.0 mm
02:50 AM 44.2°F6.8°C 38.1°F3.4°C 79% 2.4 mph WSW3.9 kmh WSW 4.0 mph6.4 kmh 29.85 in1010.8 mb 0.00 in0.0 mm 0.00 in/hr0.0 mm/hr 0.00 in0.0 mm
02:40 AM 44.5°F6.9°C 38.3°F3.5°C 79% 2.7 mph WSW4.3 kmh WSW 5.0 mph8.0 kmh 29.84 in1010.5 mb 0.00 in0.0 mm 0.00 in/hr0.0 mm/hr 0.00 in0.0 mm
02:30 AM 44.6°F7.0°C 38.2°F3.4°C 78% 3.1 mph WSW5.0 kmh WSW 5.0 mph8.0 kmh 29.84 in1010.5 mb 0.00 in0.0 mm 0.00 in/hr0.0 mm/hr 0.00 in0.0 mm
02:20 AM 44.8°F7.1°C 38.4°F3.6°C 78% 3.6 mph WSW5.8 kmh WSW 6.0 mph9.7 kmh 29.83 in1010.2 mb 0.00 in0.0 mm 0.00 in/hr0.0 mm/hr 0.00 in0.0 mm
02:10 AM 45.0°F7.2°C 38.6°F3.7°C 78% 3.7 mph WSW6.0 kmh WSW 7.0 mph11.3 kmh 29.83 in1010.2 mb 0.00 in0.0 mm 0.00 in/hr0.0 mm/hr 0.00 in0.0 mm
02:00 AM 45.1°F7.3°C 38.6°F3.7°C 78% 4.5 mph WSW7.2 kmh WSW 7.0 mph11.3 kmh 29.82 in1009.8 mb 0.00 in0.0 mm 0.00 in/hr0.0 mm/hr 0.00 in0.0 mm
01:50 AM 45.2°F7.3°C 38.7°F3.7°C 78% 4.8 mph WSW7.7 kmh WSW 10.0 mph16.1 kmh 29.81 in1009.5 mb 0.00 in0.0 mm 0.00 in/hr0.0 mm/hr 0.00 in0.0 mm
01:40 AM 45.3°F7.4°C 38.8°F3.8°C 78% 5.3 mph W8.5 kmh W 11.0 mph17.7 kmh 29.81 in1009.5 mb 0.00 in0.0 mm 0.00 in/hr0.0 mm/hr 0.00 in0.0 mm
01:30 AM 45.5°F7.5°C 38.7°F3.7°C 77% 5.3 mph W8.5 kmh W 10.0 mph16.1 kmh 29.81 in1009.5 mb 0.00 in0.0 mm 0.00 in/hr0.0 mm/hr 0.00 in0.0 mm
01:20 AM 45.7°F7.6°C 38.9°F3.8°C 77% 4.5 mph W7.2 kmh W 8.0 mph12.9 kmh 29.80 in1009.1 mb 0.00 in0.0 mm 0.00 in/hr0.0 mm/hr 0.00 in0.0 mm
01:10 AM 45.8°F7.7°C 38.7°F3.7°C 76% 7.6 mph W12.2 kmh W 12.0 mph19.3 kmh 29.80 in1009.1 mb 0.00 in0.0 mm 0.00 in/hr0.0 mm/hr 0.00 in0.0 mm
01:00 AM 46.1°F7.8°C 39.0°F3.9°C 76% 6.5 mph WSW10.5 kmh WSW 11.0 mph17.7 kmh 29.80 in1009.1 mb 0.00 in0.0 mm 0.00 in/hr0.0 mm/hr 0.00 in0.0 mm
12:50 AM 46.4°F8.0°C 38.9°F3.8°C 75% 6.1 mph W9.8 kmh W 9.0 mph14.5 kmh 29.79 in1008.8 mb 0.00 in0.0 mm 0.00 in/hr0.0 mm/hr 0.00 in0.0 mm
12:40 AM 46.5°F8.1°C 38.7°F3.7°C 74% 8.6 mph WNW13.8 kmh WNW 13.0 mph20.9 kmh 29.78 in1008.5 mb 0.00 in0.0 mm 0.00 in/hr0.0 mm/hr 0.00 in0.0 mm
12:30 AM 46.6°F8.1°C 38.8°F3.8°C 74% 9.5 mph NW15.3 kmh NW 15.0 mph24.1 kmh 29.77 in1008.1 mb 0.00 in0.0 mm 0.00 in/hr0.0 mm/hr 0.00 in0.0 mm
12:20 AM 46.7°F8.2°C 38.5°F3.6°C 73% 7.6 mph NW12.2 kmh NW 11.0 mph17.7 kmh 29.78 in1008.5 mb 0.00 in0.0 mm 0.00 in/hr0.0 mm/hr 0.00 in0.0 mm
12:10 AM 46.9°F8.3°C 38.7°F3.7°C 73% 7.6 mph WNW12.2 kmh WNW 9.0 mph14.5 kmh 29.78 in1008.5 mb 0.00 in0.0 mm 0.00 in/hr0.0 mm/hr 0.00 in0.0 mm
12:00 AM 46.9°F8.3°C 38.7°F3.7°C 73% 8.0 mph WNW12.9 kmh WNW 15.0 mph24.1 kmh 29.78 in1008.5 mb 0.00 in0.0 mm 0.00 in/hr0.0 mm/hr 0.00 in0.0 mm